sensor_id;sensor_type;location;lat;lon;timestamp;pressure;altitude;pressure_sealevel;temperature;humidity
3260;BME280;22469;48.150;14.004;2023-02-14T00:01:13;100055.31;;;3.08;69.11
3260;BME280;22469;48.150;14.004;2023-02-14T00:03:40;100056.81;;;3.03;69.61
3260;BME280;22469;48.150;14.004;2023-02-14T00:06:10;100049.13;;;3.00;69.59
3260;BME280;22469;48.150;14.004;2023-02-14T00:08:39;100044.78;;;2.96;70.28
3260;BME280;22469;48.150;14.004;2023-02-14T00:11:11;100051.56;;;2.97;70.10
3260;BME280;22469;48.150;14.004;2023-02-14T00:13:39;100058.56;;;3.04;69.94
3260;BME280;22469;48.150;14.004;2023-02-14T00:16:25;100040.03;;;3.07;69.72
3260;BME280;22469;48.150;14.004;2023-02-14T00:18:53;100042.44;;;3.02;69.79
3260;BME280;22469;48.150;14.004;2023-02-14T00:21:34;100050.16;;;3.05;70.00
3260;BME280;22469;48.150;14.004;2023-02-14T00:24:14;100054.47;;;3.08;70.12
3260;BME280;22469;48.150;14.004;2023-02-14T00:26:44;100049.94;;;2.99;71.04
3260;BME280;22469;48.150;14.004;2023-02-14T00:29:14;100052.56;;;2.75;72.64
3260;BME280;22469;48.150;14.004;2023-02-14T00:31:43;100053.63;;;2.82;72.85
3260;BME280;22469;48.150;14.004;2023-02-14T00:34:11;100052.25;;;2.92;72.44
3260;BME280;22469;48.150;14.004;2023-02-14T00:36:40;100048.16;;;2.97;72.08
3260;BME280;22469;48.150;14.004;2023-02-14T00:39:09;100059.44;;;3.05;71.77
3260;BME280;22469;48.150;14.004;2023-02-14T00:41:38;100065.56;;;3.12;71.27
3260;BME280;22469;48.150;14.004;2023-02-14T00:44:08;100066.59;;;3.18;70.77
3260;BME280;22469;48.150;14.004;2023-02-14T00:46:36;100067.16;;;3.09;71.31
3260;BME280;22469;48.150;14.004;2023-02-14T00:49:03;100074.06;;;3.14;71.38
3260;BME280;22469;48.150;14.004;2023-02-14T00:51:32;100069.81;;;3.13;70.98
3260;BME280;22469;48.150;14.004;2023-02-14T00:53:59;100062.91;;;3.08;71.15
3260;BME280;22469;48.150;14.004;2023-02-14T00:56:26;100063.66;;;3.04;71.16
3260;BME280;22469;48.150;14.004;2023-02-14T00:58:53;100069.81;;;3.13;71.02
3260;BME280;22469;48.150;14.004;2023-02-14T01:01:20;100079.22;;;3.17;70.49
3260;BME280;22469;48.150;14.004;2023-02-14T01:03:48;100081.81;;;3.18;70.11
3260;BME280;22469;48.150;14.004;2023-02-14T01:06:15;100073.25;;;3.15;69.85
3260;BME280;22469;48.150;14.004;2023-02-14T01:08:42;100077.31;;;3.09;69.88
3260;BME280;22469;48.150;14.004;2023-02-14T01:11:16;100077.50;;;3.16;69.56
3260;BME280;22469;48.150;14.004;2023-02-14T01:13:46;100085.16;;;3.17;69.50
3260;BME280;22469;48.150;14.004;2023-02-14T01:16:17;100082.69;;;3.19;69.29
3260;BME280;22469;48.150;14.004;2023-02-14T01:18:46;100079.97;;;3.14;69.31
3260;BME280;22469;48.150;14.004;2023-02-14T01:21:15;100077.09;;;3.03;68.83
3260;BME280;22469;48.150;14.004;2023-02-14T01:23:52;100060.59;;;2.89;69.03
3260;BME280;22469;48.150;14.004;2023-02-14T01:26:23;100060.69;;;2.91;69.25
3260;BME280;22469;48.150;14.004;2023-02-14T01:28:52;100065.75;;;2.91;69.13
3260;BME280;22469;48.150;14.004;2023-02-14T01:31:25;100058.91;;;2.88;69.19
3260;BME280;22469;48.150;14.004;2023-02-14T01:33:55;100063.75;;;2.82;69.00
3260;BME280;22469;48.150;14.004;2023-02-14T01:36:36;100061.13;;;2.79;69.28
3260;BME280;22469;48.150;14.004;2023-02-14T01:39:10;100059.34;;;2.76;69.35
3260;BME280;22469;48.150;14.004;2023-02-14T01:41:41;100059.16;;;2.70;69.29
3260;BME280;22469;48.150;14.004;2023-02-14T01:46:45;100051.28;;;2.63;69.45
3260;BME280;22469;48.150;14.004;2023-02-14T01:49:21;100050.53;;;2.65;69.53
3260;BME280;22469;48.150;14.004;2023-02-14T01:54:30;100051.47;;;2.67;69.55
3260;BME280;22469;48.150;14.004;2023-02-14T01:57:03;100044.03;;;2.73;69.66
3260;BME280;22469;48.150;14.004;2023-02-14T01:59:36;100047.53;;;2.77;69.41
3260;BME280;22469;48.150;14.004;2023-02-14T02:02:07;100031.31;;;2.70;69.56
3260;BME280;22469;48.150;14.004;2023-02-14T02:04:38;100033.91;;;2.73;69.35
3260;BME280;22469;48.150;14.004;2023-02-14T02:07:11;100033.97;;;2.75;69.19
3260;BME280;22469;48.150;14.004;2023-02-14T02:09:59;100040.84;;;2.79;68.95
3260;BME280;22469;48.150;14.004;2023-02-14T02:12:26;100029.00;;;2.78;68.95
3260;BME280;22469;48.150;14.004;2023-02-14T02:14:57;100033.88;;;2.72;68.77
3260;BME280;22469;48.150;14.004;2023-02-14T02:29:51;100024.44;;;2.42;69.55
3260;BME280;22469;48.150;14.004;2023-02-14T02:49:53;100024.41;;;2.41;69.08
3260;BME280;22469;48.150;14.004;2023-02-14T02:53:06;100030.09;;;2.33;69.20
3260;BME280;22469;48.150;14.004;2023-02-14T02:56:07;100030.78;;;2.29;69.43
3260;BME280;22469;48.150;14.004;2023-02-14T02:58:59;100023.94;;;2.27;69.73
3260;BME280;22469;48.150;14.004;2023-02-14T03:01:37;100024.91;;;2.30;69.51
3260;BME280;22469;48.150;14.004;2023-02-14T03:04:09;100023.34;;;2.34;69.19
3260;BME280;22469;48.150;14.004;2023-02-14T03:06:58;100031.03;;;2.37;69.17
3260;BME280;22469;48.150;14.004;2023-02-14T03:17:40;100023.66;;;2.43;69.52
3260;BME280;22469;48.150;14.004;2023-02-14T03:20:21;100018.41;;;2.38;69.49
3260;BME280;22469;48.150;14.004;2023-02-14T03:25:47;100022.00;;;2.45;69.92
3260;BME280;22469;48.150;14.004;2023-02-14T03:29:24;100019.72;;;2.53;69.86
3260;BME280;22469;48.150;14.004;2023-02-14T03:32:40;100020.03;;;2.62;69.71
3260;BME280;22469;48.150;14.004;2023-02-14T03:35:27;100020.13;;;2.65;69.80
3260;BME280;22469;48.150;14.004;2023-02-14T03:38:15;100027.88;;;2.70;69.77
3260;BME280;22469;48.150;14.004;2023-02-14T03:40:57;100020.53;;;2.77;69.56
3260;BME280;22469;48.150;14.004;2023-02-14T03:46:07;100027.72;;;2.91;69.57
3260;BME280;22469;48.150;14.004;2023-02-14T03:48:38;100021.00;;;2.93;69.30
3260;BME280;22469;48.150;14.004;2023-02-14T03:51:08;100022.72;;;2.94;69.26
3260;BME280;22469;48.150;14.004;2023-02-14T03:53:41;100033.75;;;2.94;69.17
3260;BME280;22469;48.150;14.004;2023-02-14T03:59:22;100024.50;;;2.96;69.33
3260;BME280;22469;48.150;14.004;2023-02-14T04:04:37;100020.19;;;2.94;69.51
3260;BME280;22469;48.150;14.004;2023-02-14T04:07:11;100017.72;;;2.95;69.54
3260;BME280;22469;48.150;14.004;2023-02-14T04:09:39;100021.09;;;2.96;69.62
3260;BME280;22469;48.150;14.004;2023-02-14T04:12:06;100025.47;;;3.00;69.63
3260;BME280;22469;48.150;14.004;2023-02-14T04:14:34;100016.16;;;3.00;69.83
3260;BME280;22469;48.150;14.004;2023-02-14T04:17:02;100019.63;;;3.02;69.63
3260;BME280;22469;48.150;14.004;2023-02-14T04:19:48;100011.25;;;3.05;69.78
3260;BME280;22469;48.150;14.004;2023-02-14T04:22:15;100017.06;;;3.01;69.79
3260;BME280;22469;48.150;14.004;2023-02-14T04:24:43;100018.88;;;3.05;69.72
3260;BME280;22469;48.150;14.004;2023-02-14T04:27:10;100025.66;;;3.06;69.89
3260;BME280;22469;48.150;14.004;2023-02-14T04:29:40;100026.28;;;2.99;70.30
3260;BME280;22469;48.150;14.004;2023-02-14T04:32:11;100023.41;;;2.88;71.01
3260;BME280;22469;48.150;14.004;2023-02-14T04:34:44;100023.97;;;2.79;71.68
3260;BME280;22469;48.150;14.004;2023-02-14T04:37:11;100011.91;;;2.72;72.01
3260;BME280;22469;48.150;14.004;2023-02-14T04:39:38;100017.13;;;2.77;71.88
3260;BME280;22469;48.150;14.004;2023-02-14T04:42:05;100021.16;;;2.70;72.48
3260;BME280;22469;48.150;14.004;2023-02-14T04:44:33;100012.84;;;2.74;72.20
3260;BME280;22469;48.150;14.004;2023-02-14T04:47:00;100013.56;;;2.70;72.64
3260;BME280;22469;48.150;14.004;2023-02-14T04:49:28;100008.44;;;2.69;72.78
3260;BME280;22469;48.150;14.004;2023-02-14T04:51:55;100011.81;;;2.69;72.69
3260;BME280;22469;48.150;14.004;2023-02-14T04:54:23;100010.97;;;2.69;73.03
3260;BME280;22469;48.150;14.004;2023-02-14T04:56:50;100001.69;;;2.69;72.86
3260;BME280;22469;48.150;14.004;2023-02-14T04:59:17;100004.63;;;2.56;73.68
3260;BME280;22469;48.150;14.004;2023-02-14T05:01:44;99999.84;;;2.64;73.45
3260;BME280;22469;48.150;14.004;2023-02-14T05:04:11;100004.38;;;2.74;73.48
3260;BME280;22469;48.150;14.004;2023-02-14T05:06:38;100008.50;;;2.70;73.50
3260;BME280;22469;48.150;14.004;2023-02-14T05:09:05;100002.53;;;2.70;73.58
3260;BME280;22469;48.150;14.004;2023-02-14T05:11:32;100004.69;;;2.57;73.98
3260;BME280;22469;48.150;14.004;2023-02-14T05:13:59;100000.75;;;2.40;74.69
3260;BME280;22469;48.150;14.004;2023-02-14T05:16:26;100012.00;;;2.48;74.77
3260;BME280;22469;48.150;14.004;2023-02-14T05:18:53;100003.56;;;2.49;74.38
3260;BME280;22469;48.150;14.004;2023-02-14T05:21:20;100015.72;;;2.59;74.29
3260;BME280;22469;48.150;14.004;2023-02-14T05:23:47;100014.13;;;2.61;74.19
3260;BME280;22469;48.150;14.004;2023-02-14T05:26:14;100013.97;;;2.57;74.50
3260;BME280;22469;48.150;14.004;2023-02-14T05:28:41;100015.06;;;2.65;74.13
3260;BME280;22469;48.150;14.004;2023-02-14T05:31:08;100012.56;;;2.67;73.99
3260;BME280;22469;48.150;14.004;2023-02-14T05:33:36;100014.94;;;2.60;74.04
3260;BME280;22469;48.150;14.004;2023-02-14T05:36:03;100014.22;;;2.65;74.00
3260;BME280;22469;48.150;14.004;2023-02-14T05:38:31;100015.31;;;2.73;73.83
3260;BME280;22469;48.150;14.004;2023-02-14T05:41:00;100012.88;;;2.76;73.55
3260;BME280;22469;48.150;14.004;2023-02-14T05:43:28;100017.13;;;2.77;73.40
3260;BME280;22469;48.150;14.004;2023-02-14T05:45:56;100023.22;;;2.82;73.40
3260;BME280;22469;48.150;14.004;2023-02-14T05:48:24;100020.47;;;2.76;73.42
3260;BME280;22469;48.150;14.004;2023-02-14T05:50:51;100020.53;;;2.77;73.42
3260;BME280;22469;48.150;14.004;2023-02-14T05:53:18;100027.84;;;2.68;74.02
3260;BME280;22469;48.150;14.004;2023-02-14T05:55:45;100025.66;;;2.79;73.86
3260;BME280;22469;48.150;14.004;2023-02-14T05:58:12;100030.25;;;2.91;73.64
3260;BME280;22469;48.150;14.004;2023-02-14T06:00:39;100020.28;;;2.97;73.49
3260;BME280;22469;48.150;14.004;2023-02-14T06:03:07;100021.88;;;2.93;73.33
3260;BME280;22469;48.150;14.004;2023-02-14T06:05:34;100029.47;;;2.93;74.03
3260;BME280;22469;48.150;14.004;2023-02-14T06:08:01;100020.97;;;2.91;73.62
3260;BME280;22469;48.150;14.004;2023-02-14T06:10:28;100030.50;;;2.98;73.46
3260;BME280;22469;48.150;14.004;2023-02-14T06:12:55;100033.13;;;3.01;73.13
3260;BME280;22469;48.150;14.004;2023-02-14T06:15:22;100026.28;;;2.99;73.20
3260;BME280;22469;48.150;14.004;2023-02-14T06:17:53;100029.53;;;2.95;72.99
3260;BME280;22469;48.150;14.004;2023-02-14T06:20:22;100025.84;;;2.85;73.33
3260;BME280;22469;48.150;14.004;2023-02-14T06:22:50;100023.25;;;2.83;73.22
3260;BME280;22469;48.150;14.004;2023-02-14T06:25:18;100028.50;;;2.90;73.42
3260;BME280;22469;48.150;14.004;2023-02-14T06:27:46;100025.19;;;2.91;73.19
3260;BME280;22469;48.150;14.004;2023-02-14T06:30:16;100032.69;;;2.88;73.25
3260;BME280;22469;48.150;14.004;2023-02-14T06:32:43;100040.75;;;2.76;73.62
3260;BME280;22469;48.150;14.004;2023-02-14T06:35:10;100034.22;;;2.82;73.32
3260;BME280;22469;48.150;14.004;2023-02-14T06:37:39;100021.59;;;2.84;73.07
3260;BME280;22469;48.150;14.004;2023-02-14T06:40:08;100032.09;;;2.69;73.63
3260;BME280;22469;48.150;14.004;2023-02-14T06:42:37;100019.22;;;2.63;74.15
3260;BME280;22469;48.150;14.004;2023-02-14T06:45:05;100020.09;;;2.64;74.15
3260;BME280;22469;48.150;14.004;2023-02-14T06:47:33;100016.94;;;2.71;74.15
3260;BME280;22469;48.150;14.004;2023-02-14T06:50:01;100022.28;;;2.80;73.92
3260;BME280;22469;48.150;14.004;2023-02-14T06:52:32;100024.88;;;2.81;73.76
3260;BME280;22469;48.150;14.004;2023-02-14T06:54:59;100026.72;;;2.85;73.98
3260;BME280;22469;48.150;14.004;2023-02-14T06:57:26;100027.66;;;2.89;74.24
3260;BME280;22469;48.150;14.004;2023-02-14T06:59:53;100022.59;;;2.89;74.24
3260;BME280;22469;48.150;14.004;2023-02-14T07:02:20;100023.50;;;2.91;74.20
3260;BME280;22469;48.150;14.004;2023-02-14T07:04:50;100021.84;;;2.92;74.49
3260;BME280;22469;48.150;14.004;2023-02-14T07:07:17;100021.16;;;2.97;74.14
3260;BME280;22469;48.150;14.004;2023-02-14T07:09:44;100022.91;;;3.00;74.33
3260;BME280;22469;48.150;14.004;2023-02-14T07:12:11;100019.94;;;2.84;74.94
3260;BME280;22469;48.150;14.004;2023-02-14T07:14:38;100022.03;;;2.98;74.69
3260;BME280;22469;48.150;14.004;2023-02-14T07:17:05;100019.63;;;3.02;74.58
3260;BME280;22469;48.150;14.004;2023-02-14T07:19:32;100020.72;;;3.11;74.44
3260;BME280;22469;48.150;14.004;2023-02-14T07:21:59;100015.59;;;3.09;74.50
3260;BME280;22469;48.150;14.004;2023-02-14T07:24:26;100009.94;;;3.18;74.42
3260;BME280;22469;48.150;14.004;2023-02-14T07:26:53;100001.53;;;3.19;74.31
3260;BME280;22469;48.150;14.004;2023-02-14T07:29:20;100004.28;;;3.26;73.96
3260;BME280;22469;48.150;14.004;2023-02-14T07:31:47;100006.19;;;3.33;74.05
3260;BME280;22469;48.150;14.004;2023-02-14T07:34:14;100004.94;;;3.19;74.57
3260;BME280;22469;48.150;14.004;2023-02-14T07:36:41;100001.75;;;3.26;74.54
3260;BME280;22469;48.150;14.004;2023-02-14T07:39:09;100008.81;;;3.37;74.57
3260;BME280;22469;48.150;14.004;2023-02-14T07:41:36;100008.78;;;3.35;74.66
3260;BME280;22469;48.150;14.004;2023-02-14T07:44:04;100001.63;;;3.22;75.03
3260;BME280;22469;48.150;14.004;2023-02-14T07:46:31;100003.25;;;3.20;75.50
3260;BME280;22469;48.150;14.004;2023-02-14T07:48:58;99996.69;;;3.26;75.54
3260;BME280;22469;48.150;14.004;2023-02-14T07:51:25;99990.31;;;3.39;75.30
3260;BME280;22469;48.150;14.004;2023-02-14T07:53:51;99999.16;;;3.53;74.65
3260;BME280;22469;48.150;14.004;2023-02-14T07:56:19;99999.47;;;3.64;74.52
3260;BME280;22469;48.150;14.004;2023-02-14T07:58:46;99997.28;;;3.76;74.32
3260;BME280;22469;48.150;14.004;2023-02-14T08:01:16;99997.47;;;3.84;74.35
3260;BME280;22469;48.150;14.004;2023-02-14T08:03:43;99995.06;;;3.89;74.17
3260;BME280;22469;48.150;14.004;2023-02-14T08:06:12;100001.25;;;3.98;74.06
3260;BME280;22469;48.150;14.004;2023-02-14T08:08:39;99997.22;;;4.07;73.87
3260;BME280;22469;48.150;14.004;2023-02-14T08:11:06;99992.22;;;4.10;73.67
3260;BME280;22469;48.150;14.004;2023-02-14T08:13:33;99989.00;;;4.17;73.75
3260;BME280;22469;48.150;14.004;2023-02-14T08:16:00;99994.72;;;4.08;73.36
3260;BME280;22469;48.150;14.004;2023-02-14T08:18:39;99990.75;;;4.18;73.53
3260;BME280;22469;48.150;14.004;2023-02-14T08:21:09;99994.31;;;4.24;73.64
3260;BME280;22469;48.150;14.004;2023-02-14T08:23:37;100004.59;;;4.31;73.60
3260;BME280;22469;48.150;14.004;2023-02-14T08:26:04;99998.47;;;4.22;73.37
3260;BME280;22469;48.150;14.004;2023-02-14T08:28:31;100006.41;;;4.01;73.86
3260;BME280;22469;48.150;14.004;2023-02-14T08:30:59;100006.97;;;3.91;74.29
3260;BME280;22469;48.150;14.004;2023-02-14T08:33:27;99993.88;;;4.08;73.91
3260;BME280;22469;48.150;14.004;2023-02-14T08:35:54;99989.81;;;4.14;73.95
3260;BME280;22469;48.150;14.004;2023-02-14T08:38:22;99988.78;;;4.08;73.87
3260;BME280;22469;48.150;14.004;2023-02-14T08:40:49;99997.53;;;4.17;73.75
3260;BME280;22469;48.150;14.004;2023-02-14T08:43:16;100000.91;;;4.18;73.43
3260;BME280;22469;48.150;14.004;2023-02-14T08:45:43;99990.97;;;4.27;73.49
3260;BME280;22469;48.150;14.004;2023-02-14T08:48:12;99994.44;;;4.31;72.96
3260;BME280;22469;48.150;14.004;2023-02-14T08:50:39;99992.81;;;4.33;73.31
3260;BME280;22469;48.150;14.004;2023-02-14T08:53:09;99993.66;;;4.33;72.90
3260;BME280;22469;48.150;14.004;2023-02-14T08:55:38;99994.50;;;4.32;73.16
3260;BME280;22469;48.150;14.004;2023-02-14T08:58:06;99991.28;;;4.39;72.99
3260;BME280;22469;48.150;14.004;2023-02-14T09:00:33;99981.81;;;4.34;73.08
3260;BME280;22469;48.150;14.004;2023-02-14T09:03:01;99993.72;;;4.35;73.36
3260;BME280;22469;48.150;14.004;2023-02-14T09:05:28;99991.22;;;4.36;72.58
3260;BME280;22469;48.150;14.004;2023-02-14T09:07:55;99991.28;;;4.39;72.91
3260;BME280;22469;48.150;14.004;2023-02-14T09:10:23;99992.78;;;4.31;72.55
3260;BME280;22469;48.150;14.004;2023-02-14T09:12:51;99998.84;;;4.36;72.54
3260;BME280;22469;48.150;14.004;2023-02-14T09:15:18;99997.13;;;4.35;72.26
3260;BME280;22469;48.150;14.004;2023-02-14T09:17:46;100002.13;;;4.32;72.30
3260;BME280;22469;48.150;14.004;2023-02-14T09:20:13;99993.56;;;4.28;72.64
3260;BME280;22469;48.150;14.004;2023-02-14T09:22:42;99994.59;;;4.35;72.44
3260;BME280;22469;48.150;14.004;2023-02-14T09:25:09;99994.59;;;4.37;72.54
3260;BME280;22469;48.150;14.004;2023-02-14T09:27:37;99993.00;;;4.40;72.58
3260;BME280;22469;48.150;14.004;2023-02-14T09:30:06;99995.81;;;4.51;72.22
3260;BME280;22469;48.150;14.004;2023-02-14T09:32:35;99993.81;;;4.39;72.27
3260;BME280;22469;48.150;14.004;2023-02-14T09:35:02;99990.38;;;4.37;72.38
3260;BME280;22469;48.150;14.004;2023-02-14T09:37:48;99987.84;;;4.37;72.42
3260;BME280;22469;48.150;14.004;2023-02-14T09:40:33;99986.91;;;4.34;72.19
3260;BME280;22469;48.150;14.004;2023-02-14T09:45:38;99981.16;;;4.41;72.03
3260;BME280;22469;48.150;14.004;2023-02-14T09:48:28;99980.50;;;4.48;72.12
3260;BME280;22469;48.150;14.004;2023-02-14T09:51:07;99987.41;;;4.54;72.24
3260;BME280;22469;48.150;14.004;2023-02-14T09:53:49;99985.94;;;4.62;72.16
3260;BME280;22469;48.150;14.004;2023-02-14T10:05:33;99992.00;;;4.68;71.61
3260;BME280;22469;48.150;14.004;2023-02-14T10:11:16;99988.91;;;4.82;72.31
3260;BME280;22469;48.150;14.004;2023-02-14T10:14:20;99995.53;;;4.75;72.28
3260;BME280;22469;48.150;14.004;2023-02-14T10:19:45;99988.72;;;4.74;72.07
3260;BME280;22469;48.150;14.004;2023-02-14T10:22:21;99998.34;;;4.86;72.05
3260;BME280;22469;48.150;14.004;2023-02-14T10:25:02;99996.97;;;5.00;72.00
3260;BME280;22469;48.150;14.004;2023-02-14T10:27:39;99994.56;;;5.06;71.65
3260;BME280;22469;48.150;14.004;2023-02-14T10:30:22;99993.00;;;4.75;71.50
3260;BME280;22469;48.150;14.004;2023-02-14T10:33:04;99986.13;;;4.71;71.90
3260;BME280;22469;48.150;14.004;2023-02-14T10:35:50;99978.78;;;4.83;72.01
3260;BME280;22469;48.150;14.004;2023-02-14T10:41:32;99973.03;;;4.92;72.26
3260;BME280;22469;48.150;14.004;2023-02-14T10:44:19;99965.69;;;5.03;72.37
3260;BME280;22469;48.150;14.004;2023-02-14T10:55:52;99962.06;;;4.93;71.75
3260;BME280;22469;48.150;14.004;2023-02-14T10:58:28;99960.63;;;5.06;71.88
3260;BME280;22469;48.150;14.004;2023-02-14T11:01:01;99957.50;;;5.17;71.79
3260;BME280;22469;48.150;14.004;2023-02-14T11:03:32;99962.44;;;5.10;71.16
3260;BME280;22469;48.150;14.004;2023-02-14T11:06:00;99954.91;;;5.14;71.19
3260;BME280;22469;48.150;14.004;2023-02-14T11:11:11;99952.41;;;5.17;70.55
3260;BME280;22469;48.150;14.004;2023-02-14T11:13:41;99954.91;;;5.14;70.23
3260;BME280;22469;48.150;14.004;2023-02-14T11:16:11;99946.44;;;5.15;70.20
3260;BME280;22469;48.150;14.004;2023-02-14T11:18:45;99943.16;;;5.21;70.94
3260;BME280;22469;48.150;14.004;2023-02-14T11:21:14;99936.53;;;5.28;71.10
3260;BME280;22469;48.150;14.004;2023-02-14T11:23:49;99934.81;;;5.28;71.33
3260;BME280;22469;48.150;14.004;2023-02-14T11:26:24;99934.47;;;5.10;71.10
3260;BME280;22469;48.150;14.004;2023-02-14T11:28:59;99924.00;;;4.97;71.54
3260;BME280;22469;48.150;14.004;2023-02-14T11:31:38;99929.75;;;4.89;71.90
3260;BME280;22469;48.150;14.004;2023-02-14T11:34:24;99931.97;;;5.13;71.57
3260;BME280;22469;48.150;14.004;2023-02-14T11:36:54;99930.63;;;5.30;71.68
3260;BME280;22469;48.150;14.004;2023-02-14T11:39:31;99927.41;;;5.39;71.45
3260;BME280;22469;48.150;14.004;2023-02-14T11:42:02;99925.00;;;5.45;70.84
3260;BME280;22469;48.150;14.004;2023-02-14T11:44:33;99921.72;;;5.51;70.93
3260;BME280;22469;48.150;14.004;2023-02-14T11:47:31;99917.56;;;5.56;71.09
3260;BME280;22469;48.150;14.004;2023-02-14T11:50:05;99920.09;;;5.54;70.77
3260;BME280;22469;48.150;14.004;2023-02-14T11:52:54;99921.13;;;5.21;70.89
3260;BME280;22469;48.150;14.004;2023-02-14T11:55:31;99920.13;;;5.15;72.21
3260;BME280;22469;48.150;14.004;2023-02-14T11:58:02;99915.31;;;5.29;71.88
3260;BME280;22469;48.150;14.004;2023-02-14T12:00:32;99910.63;;;5.47;71.45
3260;BME280;22469;48.150;14.004;2023-02-14T12:03:01;99910.66;;;5.50;70.92
3260;BME280;22469;48.150;14.004;2023-02-14T12:05:44;99902.81;;;5.38;70.40
3260;BME280;22469;48.150;14.004;2023-02-14T12:08:16;99897.94;;;5.50;71.25
3260;BME280;22469;48.150;14.004;2023-02-14T12:11:02;99896.41;;;5.58;71.42
3260;BME280;22469;48.150;14.004;2023-02-14T12:13:54;99898.53;;;5.37;70.80
3260;BME280;22469;48.150;14.004;2023-02-14T12:16:30;99906.00;;;5.28;71.61
3260;BME280;22469;48.150;14.004;2023-02-14T12:19:02;99895.06;;;5.33;71.42
3260;BME280;22469;48.150;14.004;2023-02-14T12:21:55;99890.88;;;5.35;71.69
3260;BME280;22469;48.150;14.004;2023-02-14T12:24:31;99886.69;;;5.37;71.07
3260;BME280;22469;48.150;14.004;2023-02-14T12:30:18;99878.94;;;5.33;71.02
3260;BME280;22469;48.150;14.004;2023-02-14T12:32:52;99876.91;;;5.15;72.42
3260;BME280;22469;48.150;14.004;2023-02-14T12:50:02;99858.72;;;5.87;71.04
3260;BME280;22469;48.150;14.004;2023-02-14T12:53:06;99857.16;;;5.92;70.39
3260;BME280;22469;48.150;14.004;2023-02-14T12:56:17;99853.66;;;5.90;70.38
3260;BME280;22469;48.150;14.004;2023-02-14T13:00:03;99852.72;;;5.84;71.22
3260;BME280;22469;48.150;14.004;2023-02-14T13:05:41;99843.47;;;5.89;70.69
3260;BME280;22469;48.150;14.004;2023-02-14T13:17:40;99834.03;;;5.83;70.56
3260;BME280;22469;48.150;14.004;2023-02-14T13:23:04;99830.63;;;5.81;70.29
3260;BME280;22469;48.150;14.004;2023-02-14T13:25:42;99835.56;;;5.74;70.65
3260;BME280;22469;48.150;14.004;2023-02-14T13:28:17;99834.03;;;5.82;70.47
3260;BME280;22469;48.150;14.004;2023-02-14T13:30:45;99830.66;;;5.84;70.33
3260;BME280;22469;48.150;14.004;2023-02-14T13:33:31;99826.44;;;5.86;70.21
3260;BME280;22469;48.150;14.004;2023-02-14T13:36:05;99823.06;;;5.86;70.18
3260;BME280;22469;48.150;14.004;2023-02-14T13:38:44;99823.06;;;5.87;69.70
3260;BME280;22469;48.150;14.004;2023-02-14T13:41:19;99814.56;;;5.85;69.76
3260;BME280;22469;48.150;14.004;2023-02-14T13:43:59;99819.66;;;5.85;69.61
3260;BME280;22469;48.150;14.004;2023-02-14T13:49:25;99814.72;;;5.94;69.90
3260;BME280;22469;48.150;14.004;2023-02-14T13:52:02;99813.88;;;5.94;70.24
3260;BME280;22469;48.150;14.004;2023-02-14T13:57:34;99821.72;;;6.08;70.06
3260;BME280;22469;48.150;14.004;2023-02-14T14:22:04;99820.16;;;6.16;69.31
3260;BME280;22469;48.150;14.004;2023-02-14T14:24:51;99816.78;;;6.18;68.60
3260;BME280;22469;48.150;14.004;2023-02-14T14:27:23;99812.53;;;6.16;68.92
3260;BME280;22469;48.150;14.004;2023-02-14T14:29:54;99810.78;;;6.13;68.79
3260;BME280;22469;48.150;14.004;2023-02-14T14:34:58;99810.78;;;6.13;68.96
3260;BME280;22469;48.150;14.004;2023-02-14T14:37:29;99810.72;;;6.09;68.85
3260;BME280;22469;48.150;14.004;2023-02-14T14:40:01;99808.94;;;6.05;68.79
3260;BME280;22469;48.150;14.004;2023-02-14T14:42:36;99814.88;;;6.04;69.12
3260;BME280;22469;48.150;14.004;2023-02-14T14:47:55;99807.22;;;6.04;69.49
3260;BME280;22469;48.150;14.004;2023-02-14T14:50:30;99805.63;;;6.10;69.82
3260;BME280;22469;48.150;14.004;2023-02-14T14:53:04;99803.13;;;6.15;69.75
3260;BME280;22469;48.150;14.004;2023-02-14T14:55:37;99807.41;;;6.16;69.25
3260;BME280;22469;48.150;14.004;2023-02-14T15:00:59;99796.38;;;6.17;69.31
3260;BME280;22469;48.150;14.004;2023-02-14T15:03:27;99799.78;;;6.17;69.92
3260;BME280;22469;48.150;14.004;2023-02-14T15:06:21;99797.22;;;6.16;69.03
3260;BME280;22469;48.150;14.004;2023-02-14T15:08:48;99805.69;;;6.13;69.44
3260;BME280;22469;48.150;14.004;2023-02-14T15:11:26;99793.78;;;6.14;69.48
3260;BME280;22469;48.150;14.004;2023-02-14T15:14:17;99801.44;;;6.14;69.38
3260;BME280;22469;48.150;14.004;2023-02-14T15:16:53;99790.28;;;6.07;69.47
3260;BME280;22469;48.150;14.004;2023-02-14T15:19:41;99805.63;;;6.10;69.65
3260;BME280;22469;48.150;14.004;2023-02-14T15:24:52;99794.50;;;6.04;69.43
3260;BME280;22469;48.150;14.004;2023-02-14T15:27:24;99798.72;;;6.02;69.78
3260;BME280;22469;48.150;14.004;2023-02-14T15:29:55;99800.38;;;6.01;69.66
3260;BME280;22469;48.150;14.004;2023-02-14T15:32:24;99796.13;;;6.00;69.90
3260;BME280;22469;48.150;14.004;2023-02-14T15:34:53;99795.81;;;5.82;70.03
3260;BME280;22469;48.150;14.004;2023-02-14T15:37:21;99796.56;;;5.76;70.09
3260;BME280;22469;48.150;14.004;2023-02-14T15:39:54;99794.59;;;5.58;70.84
3260;BME280;22469;48.150;14.004;2023-02-14T15:42:27;99788.72;;;5.62;71.07
3260;BME280;22469;48.150;14.004;2023-02-14T15:47:45;99790.59;;;5.74;70.88
3260;BME280;22469;48.150;14.004;2023-02-14T15:50:22;99794.03;;;5.76;70.38
3260;BME280;22469;48.150;14.004;2023-02-14T15:52:57;99787.28;;;5.78;70.71
3260;BME280;22469;48.150;14.004;2023-02-14T15:55:29;99788.09;;;5.77;70.45
3260;BME280;22469;48.150;14.004;2023-02-14T15:58:00;99786.41;;;5.78;70.24
3260;BME280;22469;48.150;14.004;2023-02-14T16:00:31;99788.03;;;5.74;70.56
3260;BME280;22469;48.150;14.004;2023-02-14T16:03:04;99784.69;;;5.77;70.39
3260;BME280;22469;48.150;14.004;2023-02-14T16:05:34;99775.41;;;5.79;70.53
3260;BME280;22469;48.150;14.004;2023-02-14T16:08:30;99778.81;;;5.79;70.45
3260;BME280;22469;48.150;14.004;2023-02-14T16:11:04;99772.75;;;5.74;70.10
3260;BME280;22469;48.150;14.004;2023-02-14T16:13:41;99779.53;;;5.72;70.33
3260;BME280;22469;48.150;14.004;2023-02-14T16:16:13;99777.78;;;5.68;70.36